• Join FlightAware (Why Join?)
  • Login
  • US Flag 
12:33AM EDT


 

Airport Tracker/Info


-or-


 

Live Flight TrackerFlight Track Log ✈ EGF4432 ✈ 07-May-2013 ✈ KDCA - KBNA

Flight Track Log - Related Links

Times and Time Zones

All times are in EDT time to prevent confusion due to time zone crossing. See the EGF4432 flight status page for this flight to view local times or setup timezone preferences in your user account.

Time Position Orientation Groundspeed Altitude Reporting Facility
EDT Latitude Longitude Course Direction KTS MPH feet Rate Location/Type
05:44PM 38.8833 -77.0500 270° West 174 200 1,400  Level Potomac TRACON
05:45PM 38.9167 -77.1000 311° West 237 273 3,600 2,040 Climbing Potomac TRACON
05:46PM 38.8500 -77.4883 270° West  Level FlightAware Approximate
05:46PM 38.9833 -77.1667 322° Northwest 296 341 5,500  Level Potomac TRACON
05:47PM 38.8500 -77.6399 270° West  Level FlightAware Approximate
05:47PM 38.9886 -77.3089 273° West 269 310 9,600  Level Washington Center
05:48PM 38.8501 -77.7916 270° West  Level FlightAware Approximate
05:48PM 38.9478 -77.4067 242° Southwest 278 320 11,300  Level Washington Center
05:49PM 38.8503 -77.9432 270° West  Level FlightAware Approximate
05:49PM 38.9064 -77.5122 243° Southwest 306 352 13,000  Level Washington Center
05:50PM 38.8917 -77.6453 262° West 364 419 14,300 1,500 Climbing Washington Center
05:51PM 38.8828 -77.7997 266° West 395 455 16,100 1,500 Climbing Washington Center
05:52PM 38.8736 -77.9461 265° West 410 472 17,400 1,380 Climbing Washington Center
05:53PM 38.8625 -78.0897 264° West 415 478 19,000 1,560 Climbing Washington Center
05:54PM 38.8531 -78.2386 265° West 415 478 20,500 1,560 Climbing Washington Center
05:55PM 38.8517 -78.3933 269° West 425 489 22,200 1,800 Climbing Washington Center
05:56PM 38.8522 -78.5397 270° West 425 489 24,200 1,980 Climbing Washington Center
05:57PM 38.8486 -78.6889 268° West 419 482 26,300 1,380 Climbing Washington Center
05:58PM 38.8489 -78.8356 270° West 419 482 27,000 300 Climbing Washington Center
05:59PM 38.8464 -78.9956 269° West 432 497 27,000 960 Level Washington Center
06:01PM 38.8222 -79.3247 265° West 462 532 29,900 1,560 Climbing Washington Center
06:02PM 38.7944 -79.4725 256° West 456 525 31,800 1,080 Climbing Washington Center
06:03PM 38.7689 -79.6175 257° West 449 517 32,100 420 Climbing Washington Center
06:04PM 38.7361 -79.7808 256° West 463 533 32,700 720 Climbing Washington Center
06:06PM 38.6853 -80.0525 257° West 483 556 34,000 480 Climbing Indianapolis Center
06:07PM 38.6533 -80.2167 256° West 477 549 34,000  Level Indianapolis Center
06:08PM 38.6228 -80.3794 257° West 472 543 34,000  Level Indianapolis Center
06:09PM 38.5919 -80.5422 256° West 470 541 34,000  Level Indianapolis Center
06:10PM 38.5614 -80.7075 257° West 477 549 34,000  Level Indianapolis Center
06:11PM 38.5225 -80.9072 256° West 480 552 34,000  Level Indianapolis Center
06:12PM 38.4892 -81.0742 256° West 481 554 34,000  Level Indianapolis Center
06:13PM 38.4567 -81.2397 256° West 478 550 34,000  Level Indianapolis Center
06:14PM 38.4231 -81.4056 256° West 476 548 34,000  Level Indianapolis Center
06:15PM 38.3911 -81.5711 256° West 475 547 34,000  Level Indianapolis Center
06:16PM 38.3581 -81.7350 256° West 473 544 34,000  Level Indianapolis Center
06:17PM 38.3158 -81.8956 252° West 474 545 34,000  Level Indianapolis Center
06:18PM 38.2703 -82.0544 250° West 477 549 34,000  Level Indianapolis Center
06:19PM 38.2256 -82.2133 250° West 476 548 34,000  Level Indianapolis Center
06:20PM 38.1714 -82.4028 250° West 475 547 34,000  Level Indianapolis Center
06:21PM 38.1267 -82.5597 250° West 473 544 34,000  Level Indianapolis Center
06:22PM 38.0681 -82.7089 244° Southwest 477 549 34,000  Level Indianapolis Center
06:23PM 37.9992 -82.8544 239° Southwest 482 555 34,000  Level Indianapolis Center
06:24PM 37.9300 -82.9989 239° Southwest 481 554 34,000  Level Indianapolis Center
06:25PM 37.8497 -83.1675 239° Southwest 479 551 34,000  Level Indianapolis Center
06:27PM 37.7803 -83.3139 239° Southwest 484 557 34,000  Level Indianapolis Center
06:28PM 37.7111 -83.4575 239° Southwest 483 556 34,000  Level Indianapolis Center
06:29PM 37.6411 -83.6028 239° Southwest 484 557 34,000  Level Indianapolis Center
06:30PM 37.5725 -83.7469 239° Southwest 482 555 34,000 -300 Level Indianapolis Center
06:31PM 37.4908 -83.9156 239° Southwest 485 558 33,400 -720 Descending Indianapolis Center
06:32PM 37.4225 -84.0561 239° Southwest 474 545 32,600 -780 Descending Indianapolis Center
06:33PM 37.3522 -84.1969 238° Southwest 475 547 31,800 -780 Descending Indianapolis Center
06:34PM 37.2819 -84.3400 238° Southwest 480 552 31,000 -780 Descending Indianapolis Center
06:35PM 37.2125 -84.4825 239° Southwest 481 554 30,200 -540 Descending Indianapolis Center
06:36PM 37.1300 -84.6497 238° Southwest 481 554 30,000 -120 Descending Indianapolis Center
06:37PM 37.0589 -84.7908 238° Southwest 479 551 30,000  Level Indianapolis Center
06:38PM 36.9925 -84.9233 238° Southwest 472 543 30,000 -300 Level Indianapolis Center
06:39PM 36.9211 -85.0650 238° Southwest 480 552 29,400 -2,280 Descending Indianapolis Center
06:40PM 36.8372 -85.2314 238° Southwest 475 547 25,400 -3,420 Descending Indianapolis Center
06:41PM 36.7717 -85.3586 237° Southwest 443 510 22,400 -2,280 Descending Indianapolis Center
06:41PM 36.7456 -85.4061 236° Southwest 465 535 22,000 -300 Descending Memphis Center
06:42PM 36.6903 -85.5364 242° Southwest 413 475 22,000  Level Memphis Center
06:43PM 36.6397 -85.6350 237° Southwest 392 451 22,000 -900 Level Memphis Center
06:44PM 36.5856 -85.7467 239° Southwest 392 451 20,300 -2,040 Descending Memphis Center
06:45PM 36.5356 -85.8556 240° Southwest 381 438 18,000 -2,280 Descending Memphis Center
06:46PM 36.4869 -85.9589 240° Southwest 360 414 15,800 -2,280 Descending Memphis Center
06:47PM 36.4406 -86.0594 240° Southwest 347 399 13,500 -2,280 Descending Memphis Center
06:48PM 36.3939 -86.1547 239° Southwest 341 392 11,300 -1,680 Descending Memphis Center
06:49PM 36.3489 -86.2447 238° Southwest 320 368 10,200 -1,440 Descending Memphis Center
06:50PM 36.3039 -86.3369 239° Southwest 299 344 8,500 -1,800 Descending Memphis Center
06:51PM 36.2650 -86.4186 239° Southwest 289 333 6,600 -1,320 Descending Memphis Center
06:52PM 36.2297 -86.4925 239° Southwest 271 312 5,900 -300 Descending Memphis Center
06:53PM 36.1767 -86.5361 214° Southwest 228 262 6,000 -480 Climbing Memphis Center
06:54PM 36.1128 -86.5597 197° South 228 262 5,000 -1,140 Descending Memphis Center
06:55PM 36.0531 -86.5831 198° South 234 269 3,800 -1,200 Descending Memphis Center